Latest Coastal Weather Observations for Croker Island Airport

IDD60701

Issued at 6:32 pm CST Tuesday 3 March 2015 (issued every 10 minutes, with the page automatically refreshed every 10 minutes)

About coastal observations | Map of coastal stations | Coastal observations for NT | Marine services | Other Formats
Station Details ID: 014308 Name: CROKER ISLAND AIRPORT Lat: -11.16 Lon: 132.48 Height: 9.2 m
Data from the previous 72 hours. | See also: Recent months for locations in Northern Territory
Date/Time
CST
Temp

°C
Wind Pressure Rain
since 9am
mm
Weather Cloud Vis
km
Sea
Height
m
Swell
Dir
 
Speed
knots
Gust
knots
hPa Trend Height
m
Period
s
Dir
03/06:30pm - N 4 6 1005.7 - - - - - - - - -
03/06:00pm - N 5 8 1005.2 - - - - - - - - -
03/05:30pm - N 5 7 1005.0 - - - - - - - - -
03/05:00pm - NNW 6 9 1004.9 - - - - - - - - -
03/04:30pm - N 7 10 1004.8 - - - - - - - - -
03/04:00pm - N 9 13 1005.1 - - - - - - - - -
03/03:30pm - NW 9 12 1005.2 - - - - - - - - -
03/03:00pm - N 8 10 1005.3 - - - - - - - - -
03/02:30pm - N 7 10 1005.8 - - - - - - - - -
03/02:00pm - NNW 8 11 1006.1 - - - - - - - - -
03/01:30pm - N 7 11 1006.4 - - - - - - - - -
03/01:00pm - NNW 10 17 1006.8 - - - - - - - - -
03/12:30pm - N 9 14 1007.2 - - - - - - - - -
03/12:00pm - N 9 13 1007.4 - - - - - - - - -
03/11:30am - N 9 14 1007.5 - - - - - - - - -
03/11:00am - N 8 12 1007.8 - - - - - - - - -
03/10:30am - N 8 12 1007.8 - - - - - - - - -
03/10:00am - N 6 11 1007.7 - - - - - - - - -
03/09:30am - NNE 6 8 1007.2 - - - - - - - - -
03/09:00am - NNE 5 6 1007.0 - - - - - - - - -
03/08:30am - NE 3 4 1006.6 - - - - - - - - -
03/08:00am - NE 2 3 1006.3 - - - - - - - - -
03/07:30am - NE 2 2 1005.5 - - - - - - - - -
03/07:00am - NE 2 3 1005.4 - - - - - - - - -
03/06:30am - ENE 3 3 1004.9 - - - - - - - - -
03/06:00am - ENE 2 3 1004.8 - - - - - - - - -
03/05:30am - NE 3 3 1004.6 - - - - - - - - -
03/05:00am - NNE 2 2 1004.2 - - - - - - - - -
03/04:30am - N 2 2 1003.9 - - - - - - - - -
03/04:00am - CALM 0 0 1003.9 - - - - - - - - -
03/03:30am - CALM 0 0 1004.4 - - - - - - - - -
03/03:00am - CALM 0 0 1004.4 - - - - - - - - -
03/02:30am - CALM 0 0 1004.6 - - - - - - - - -
03/02:00am - CALM 0 2 1004.7 - - - - - - - - -
03/01:30am - SW 2 3 1005.0 - - - - - - - - -
03/01:00am - WSW 3 4 1005.1 - - - - - - - - -
03/12:30am - WSW 3 5 1005.4 - - - - - - - - -
03/12:00am - WSW 2 3 1005.6 - - - - - - - - -
 
Date/Time
CST
Temp

°C
Wind Pressure Rain
since 9am
mm
Weather Cloud Vis
km
Sea
Height
m
Swell
Dir
 
Speed
knots
Gust
knots
hPa Trend Height
m
Period
s
Dir
02/11:30pm - WNW 3 4 1005.7 - - - - - - - - -
02/11:00pm - WNW 3 4 1005.8 - - - - - - - - -
02/10:30pm - WNW 2 4 1005.5 - - - - - - - - -
02/10:00pm - NW 3 4 1005.2 - - - - - - - - -
02/09:30pm - NW 2 3 1005.3 - - - - - - - - -
02/09:00pm - WNW 5 9 1005.2 - - - - - - - - -
02/08:30pm - WSW 3 6 1005.0 - - - - - - - - -
02/08:00pm - SW 1 2 1004.8 - - - - - - - - -
02/07:30pm - W 1 3 1004.5 - - - - - - - - -
02/07:00pm - W 4 6 1004.2 - - - - - - - - -
02/06:30pm - WNW 7 11 1003.9 - - - - - - - - -
02/06:00pm - WNW 9 13 1003.4 - - - - - - - - -
02/05:30pm - WNW 8 11 1003.4 - - - - - - - - -
02/05:00pm - WNW 9 12 1003.1 - - - - - - - - -
02/04:30pm - WNW 6 8 1003.1 - - - - - - - - -
02/04:00pm - WNW 7 10 1003.6 - - - - - - - - -
02/03:30pm - W 4 6 1003.6 - - - - - - - - -
02/03:00pm - W 4 6 1003.9 - - - - - - - - -
02/02:30pm - WNW 1 3 1004.1 - - - - - - - - -
02/02:00pm - NW 4 5 1004.6 - - - - - - - - -
02/01:30pm - WNW 3 5 1004.6 - - - - - - - - -
02/01:00pm - WNW 4 6 1004.9 - - - - - - - - -
02/12:30pm - W 10 13 1005.7 - - - - - - - - -
02/12:00pm - WSW 12 16 1006.3 - - - - - - - - -
02/11:30am - WSW 17 25 1006.8 - - - - - - - - -
02/11:12am - SW 17 27 1006.8 - - - - - - - - -
02/11:00am - SW 18 23 1006.8 - - - - - - - - -
02/10:54am - SSW 13 23 1006.4 - - - - - - - - -
02/10:30am - SE 3 5 1006.2 - - - - - - - - -
02/10:00am - ENE 3 6 1006.0 - - - - - - - - -
02/09:30am - E 2 4 1006.6 - - - - - - - - -
02/09:00am - SSE 4 5 1007.2 - - - - - - - - -
02/08:30am - S 7 11 1007.1 - - - - - - - - -
02/08:00am - W 7 10 1005.8 - - - - - - - - -
02/07:30am - WNW 7 9 1005.0 - - - - - - - - -
02/07:00am - W 8 11 1004.9 - - - - - - - - -
02/06:30am - SW 5 6 1004.7 - - - - - - - - -
02/06:00am - WSW 5 8 1004.1 - - - - - - - - -
02/05:30am - S 7 10 1004.3 - - - - - - - - -
02/05:00am - SSE 7 10 1004.7 - - - - - - - - -
02/04:30am - S 8 11 1004.8 - - - - - - - - -
02/04:00am - SSW 9 11 1004.9 - - - - - - - - -
02/03:30am - SW 8 11 1005.1 - - - - - - - - -
02/03:00am - WSW 8 10 1005.3 - - - - - - - - -
02/02:30am - SW 6 8 1005.7 - - - - - - - - -
02/02:00am - SW 5 7 1005.9 - - - - - - - - -
02/01:30am - SW 3 5 1006.2 - - - - - - - - -
02/01:00am - WSW 6 7 1006.2 - - - - - - - - -
02/12:30am - WSW 6 9 1006.5 - - - - - - - - -
02/12:00am - WSW 8 12 1006.7 - - - - - - - - -
 
Date/Time
CST
Temp

°C
Wind Pressure Rain
since 9am
mm
Weather Cloud Vis
km
Sea
Height
m
Swell
Dir
 
Speed
knots
Gust
knots
hPa Trend Height
m
Period
s
Dir
01/11:30pm - WSW 9 12 1006.8 - - - - - - - - -
01/11:00pm - WSW 10 13 1006.9 - - - - - - - - -
01/10:30pm - WSW 12 15 1006.6 - - - - - - - - -
01/10:00pm - W 14 19 1005.7 - - - - - - - - -
01/09:30pm - W 13 18 1006.2 - - - - - - - - -
01/09:00pm - W 11 15 1006.5 - - - - - - - - -
01/08:30pm - W 9 14 1006.5 - - - - - - - - -
01/08:00pm - W 8 12 1006.5 - - - - - - - - -
01/07:30pm - W 10 13 1005.8 - - - - - - - - -
01/07:00pm - W 12 17 1005.1 - - - - - - - - -
01/06:30pm - WNW 13 18 1004.6 - - - - - - - - -
01/06:00pm - WNW 13 18 1004.2 - - - - - - - - -
01/05:30pm - WNW 15 20 1004.3 - - - - - - - - -
01/05:00pm - WNW 13 18 1003.8 - - - - - - - - -
01/04:30pm - WNW 13 19 1003.9 - - - - - - - - -
01/04:00pm - WNW 12 17 1004.0 - - - - - - - - -
01/03:30pm - WNW 10 15 1004.2 - - - - - - - - -
01/03:00pm - WNW 11 15 1004.3 - - - - - - - - -
01/02:30pm - WNW 11 15 1004.3 - - - - - - - - -
01/02:00pm - WNW 10 15 1005.0 - - - - - - - - -
01/01:30pm - WNW 9 15 1005.8 - - - - - - - - -
01/01:00pm - WNW 10 15 1006.4 - - - - - - - - -
01/12:30pm - WNW 10 13 1007.0 - - - - - - - - -
01/12:00pm - WNW 10 13 1007.5 - - - - - - - - -
01/11:30am - WNW 10 13 1007.6 - - - - - - - - -
01/11:00am - W 9 11 1007.9 - - - - - - - - -
01/10:30am - W 7 10 1007.6 - - - - - - - - -
01/10:00am - W 7 11 1007.7 - - - - - - - - -
01/09:30am - W 7 11 1007.9 - - - - - - - - -
01/09:00am - W 7 11 1007.8 - - - - - - - - -
01/08:30am - WSW 8 11 1007.7 - - - - - - - - -
01/08:00am - W 7 9 1007.2 - - - - - - - - -
01/07:30am - WSW 7 9 1006.5 - - - - - - - - -
01/07:00am - WSW 8 9 1006.1 - - - - - - - - -
01/06:30am - WSW 8 10 1005.9 - - - - - - - - -
01/06:00am - W 8 12 1005.2 - - - - - - - - -
01/05:30am - W 8 11 1005.2 - - - - - - - - -
01/05:00am - W 7 10 1005.3 - - - - - - - - -
01/04:30am - WSW 9 11 1005.2 - - - - - - - - -
01/04:00am - W 9 13 1005.4 - - - - - - - - -
01/03:30am - WSW 11 14 1005.4 - - - - - - - - -
01/03:00am - W 14 18 1005.6 - - - - - - - - -
01/02:30am - W 12 16 1006.1 - - - - - - - - -
01/02:00am - W 12 16 1006.2 - - - - - - - - -
01/01:30am - WNW 12 18 1006.3 - - - - - - - - -
01/01:00am - WNW 11 16 1006.6 - - - - - - - - -
01/12:30am - W 14 19 1007.2 - - - - - - - - -
01/12:00am - W 13 18 1007.4 - - - - - - - - -
 
Date/Time
CST
Temp

°C
Wind Pressure Rain
since 9am
mm
Weather Cloud Vis
km
Sea
Height
m
Swell
Dir
 
Speed
knots
Gust
knots
hPa Trend Height
m
Period
s
Dir
28/11:30pm - WNW 10 16 1007.6 - - - - - - - - -
28/11:00pm - WNW 11 17 1007.7 - - - - - - - - -
28/10:30pm - WNW 11 17 1007.8 - - - - - - - - -
28/10:00pm - WNW 12 17 1007.5 - - - - - - - - -
28/09:30pm - WNW 9 13 1007.2 - - - - - - - - -
28/09:00pm - WNW 9 13 1006.7 - - - - - - - - -
28/08:30pm - WNW 12 15 1006.2 - - - - - - - - -
28/08:00pm - W 10 14 1005.9 - - - - - - - - -
28/07:30pm - W 12 16 1005.6 - - - - - - - - -
28/07:00pm - WNW 11 16 1005.2 - - - - - - - - -

Other Formats:

Comma delimited format used in spreadsheet applications
http://www.bom.gov.au/fwo/IDD60701/IDD60701.94108.axf

JavaScript Object Notation format (JSON) in row-major order
http://www.bom.gov.au/fwo/IDD60701/IDD60701.94108.json